sensor_id;sensor_type;location;lat;lon;timestamp;P1;durP1;ratioP1;P2;durP2;ratioP2
78027;SDS011;67235;45.638;11.714;2023-04-01T00:00:19;59.33;;;34.38;;
78027;SDS011;67235;45.638;11.714;2023-04-01T00:02:45;59.30;;;34.20;;
78027;SDS011;67235;45.638;11.714;2023-04-01T00:05:12;56.65;;;33.60;;
78027;SDS011;67235;45.638;11.714;2023-04-01T00:07:38;59.38;;;34.03;;
78027;SDS011;67235;45.638;11.714;2023-04-01T00:10:09;58.80;;;33.27;;
78027;SDS011;67235;45.638;11.714;2023-04-01T00:12:36;60.17;;;31.45;;
78027;SDS011;67235;45.638;11.714;2023-04-01T00:15:04;50.10;;;29.58;;
78027;SDS011;67235;45.638;11.714;2023-04-01T00:17:32;53.42;;;30.73;;
78027;SDS011;67235;45.638;11.714;2023-04-01T00:19:58;59.13;;;33.75;;
78027;SDS011;67235;45.638;11.714;2023-04-01T00:22:24;46.43;;;27.17;;
78027;SDS011;67235;45.638;11.714;2023-04-01T00:24:52;44.42;;;27.52;;
78027;SDS011;67235;45.638;11.714;2023-04-01T00:27:18;57.05;;;32.92;;
78027;SDS011;67235;45.638;11.714;2023-04-01T00:29:45;94.20;;;31.58;;
78027;SDS011;67235;45.638;11.714;2023-04-01T00:32:12;55.40;;;31.02;;
78027;SDS011;67235;45.638;11.714;2023-04-01T00:34:39;51.87;;;29.67;;
78027;SDS011;67235;45.638;11.714;2023-04-01T00:37:06;50.40;;;28.90;;
78027;SDS011;67235;45.638;11.714;2023-04-01T00:39:33;40.85;;;24.42;;
78027;SDS011;67235;45.638;11.714;2023-04-01T00:41:59;50.80;;;27.23;;
78027;SDS011;67235;45.638;11.714;2023-04-01T00:44:28;53.92;;;30.52;;
78027;SDS011;67235;45.638;11.714;2023-04-01T00:46:58;59.80;;;33.60;;
78027;SDS011;67235;45.638;11.714;2023-04-01T00:49:32;59.20;;;34.03;;
78027;SDS011;67235;45.638;11.714;2023-04-01T00:52:04;57.25;;;32.15;;
78027;SDS011;67235;45.638;11.714;2023-04-01T00:54:32;58.05;;;32.05;;
78027;SDS011;67235;45.638;11.714;2023-04-01T00:57:13;57.85;;;32.40;;
78027;SDS011;67235;45.638;11.714;2023-04-01T00:59:45;50.70;;;28.27;;
78027;SDS011;67235;45.638;11.714;2023-04-01T01:02:14;46.05;;;25.75;;
78027;SDS011;67235;45.638;11.714;2023-04-01T01:04:41;54.08;;;30.30;;
78027;SDS011;67235;45.638;11.714;2023-04-01T01:09:41;48.70;;;27.97;;
78027;SDS011;67235;45.638;11.714;2023-04-01T01:12:19;67.10;;;25.95;;
78027;SDS011;67235;45.638;11.714;2023-04-01T01:14:55;49.25;;;27.30;;
78027;SDS011;67235;45.638;11.714;2023-04-01T01:25:29;50.13;;;29.83;;
78027;SDS011;67235;45.638;11.714;2023-04-01T01:31:37;44.20;;;26.15;;
78027;SDS011;67235;45.638;11.714;2023-04-01T01:34:22;42.58;;;25.58;;
78027;SDS011;67235;45.638;11.714;2023-04-01T01:36:54;46.80;;;27.37;;
78027;SDS011;67235;45.638;11.714;2023-04-01T01:39:25;42.50;;;26.48;;
78027;SDS011;67235;45.638;11.714;2023-04-01T01:41:59;46.53;;;26.85;;
78027;SDS011;67235;45.638;11.714;2023-04-01T01:44:29;47.13;;;27.40;;
78027;SDS011;67235;45.638;11.714;2023-04-01T01:46:56;46.83;;;26.73;;
78027;SDS011;67235;45.638;11.714;2023-04-01T01:49:23;45.47;;;26.80;;
78027;SDS011;67235;45.638;11.714;2023-04-01T01:51:51;46.97;;;26.30;;
78027;SDS011;67235;45.638;11.714;2023-04-01T01:54:17;47.25;;;27.50;;
78027;SDS011;67235;45.638;11.714;2023-04-01T01:56:44;52.08;;;26.17;;
78027;SDS011;67235;45.638;11.714;2023-04-01T01:59:13;43.38;;;25.67;;
78027;SDS011;67235;45.638;11.714;2023-04-01T02:01:45;40.50;;;24.30;;
78027;SDS011;67235;45.638;11.714;2023-04-01T02:04:14;41.08;;;23.52;;
78027;SDS011;67235;45.638;11.714;2023-04-01T02:06:44;38.28;;;24.00;;
78027;SDS011;67235;45.638;11.714;2023-04-01T02:09:17;39.35;;;24.08;;
78027;SDS011;67235;45.638;11.714;2023-04-01T02:14:16;35.60;;;20.80;;
78027;SDS011;67235;45.638;11.714;2023-04-01T02:16:49;45.85;;;24.88;;
78027;SDS011;67235;45.638;11.714;2023-04-01T02:19:36;44.08;;;25.38;;
78027;SDS011;67235;45.638;11.714;2023-04-01T02:22:06;56.50;;;26.98;;
78027;SDS011;67235;45.638;11.714;2023-04-01T02:24:36;48.70;;;26.27;;
78027;SDS011;67235;45.638;11.714;2023-04-01T02:27:05;52.23;;;26.93;;
78027;SDS011;67235;45.638;11.714;2023-04-01T02:29:31;49.08;;;25.67;;
78027;SDS011;67235;45.638;11.714;2023-04-01T02:31:57;42.38;;;23.48;;
78027;SDS011;67235;45.638;11.714;2023-04-01T02:34:24;53.58;;;26.00;;
78027;SDS011;67235;45.638;11.714;2023-04-01T02:36:50;47.90;;;28.13;;
78027;SDS011;67235;45.638;11.714;2023-04-01T02:39:18;42.72;;;24.48;;
78027;SDS011;67235;45.638;11.714;2023-04-01T02:41:44;50.15;;;28.35;;
78027;SDS011;67235;45.638;11.714;2023-04-01T02:44:11;49.85;;;27.90;;
78027;SDS011;67235;45.638;11.714;2023-04-01T02:46:39;46.20;;;26.45;;
78027;SDS011;67235;45.638;11.714;2023-04-01T02:49:05;55.93;;;28.57;;
78027;SDS011;67235;45.638;11.714;2023-04-01T02:51:32;68.05;;;32.45;;
78027;SDS011;67235;45.638;11.714;2023-04-01T02:53:58;53.80;;;28.33;;
78027;SDS011;67235;45.638;11.714;2023-04-01T02:56:24;42.75;;;25.00;;
78027;SDS011;67235;45.638;11.714;2023-04-01T02:58:51;39.72;;;23.38;;
78027;SDS011;67235;45.638;11.714;2023-04-01T03:01:17;40.13;;;23.47;;
78027;SDS011;67235;45.638;11.714;2023-04-01T03:03:43;37.80;;;22.38;;
78027;SDS011;67235;45.638;11.714;2023-04-01T03:06:10;74.53;;;24.27;;
78027;SDS011;67235;45.638;11.714;2023-04-01T03:08:38;40.70;;;21.10;;
78027;SDS011;67235;45.638;11.714;2023-04-01T03:11:04;50.08;;;24.17;;
78027;SDS011;67235;45.638;11.714;2023-04-01T03:13:31;41.28;;;24.15;;
78027;SDS011;67235;45.638;11.714;2023-04-01T03:15:57;265.48;;;30.63;;
78027;SDS011;67235;45.638;11.714;2023-04-01T03:18:23;53.60;;;28.00;;
78027;SDS011;67235;45.638;11.714;2023-04-01T03:20:49;44.03;;;24.33;;
78027;SDS011;67235;45.638;11.714;2023-04-01T03:23:14;43.03;;;23.73;;
78027;SDS011;67235;45.638;11.714;2023-04-01T03:25:42;46.40;;;23.25;;
78027;SDS011;67235;45.638;11.714;2023-04-01T03:28:08;35.57;;;20.90;;
78027;SDS011;67235;45.638;11.714;2023-04-01T03:30:35;48.35;;;21.20;;
78027;SDS011;67235;45.638;11.714;2023-04-01T03:33:00;44.67;;;23.65;;
78027;SDS011;67235;45.638;11.714;2023-04-01T03:35:27;43.95;;;23.85;;
78027;SDS011;67235;45.638;11.714;2023-04-01T03:37:53;43.00;;;23.87;;
78027;SDS011;67235;45.638;11.714;2023-04-01T03:40:20;34.58;;;20.40;;
78027;SDS011;67235;45.638;11.714;2023-04-01T03:42:46;36.85;;;21.35;;
78027;SDS011;67235;45.638;11.714;2023-04-01T03:45:12;33.40;;;21.13;;
78027;SDS011;67235;45.638;11.714;2023-04-01T03:47:38;33.73;;;20.23;;
78027;SDS011;67235;45.638;11.714;2023-04-01T03:50:05;39.85;;;22.30;;
78027;SDS011;67235;45.638;11.714;2023-04-01T03:52:32;63.25;;;23.42;;
78027;SDS011;67235;45.638;11.714;2023-04-01T03:54:59;146.27;;;27.23;;
78027;SDS011;67235;45.638;11.714;2023-04-01T03:57:25;167.37;;;26.00;;
78027;SDS011;67235;45.638;11.714;2023-04-01T03:59:51;128.48;;;26.58;;
78027;SDS011;67235;45.638;11.714;2023-04-01T04:02:17;182.55;;;28.17;;
78027;SDS011;67235;45.638;11.714;2023-04-01T04:04:43;95.40;;;26.83;;
78027;SDS011;67235;45.638;11.714;2023-04-01T04:07:09;113.68;;;26.75;;
78027;SDS011;67235;45.638;11.714;2023-04-01T04:09:35;73.32;;;25.08;;
78027;SDS011;67235;45.638;11.714;2023-04-01T04:12:01;40.23;;;22.73;;
78027;SDS011;67235;45.638;11.714;2023-04-01T04:14:27;44.83;;;20.63;;
78027;SDS011;67235;45.638;11.714;2023-04-01T04:16:53;40.28;;;20.38;;
78027;SDS011;67235;45.638;11.714;2023-04-01T04:19:19;35.92;;;21.55;;
78027;SDS011;67235;45.638;11.714;2023-04-01T04:21:45;37.25;;;21.67;;
78027;SDS011;67235;45.638;11.714;2023-04-01T04:24:11;39.15;;;21.73;;
78027;SDS011;67235;45.638;11.714;2023-04-01T04:26:36;41.67;;;23.37;;
78027;SDS011;67235;45.638;11.714;2023-04-01T04:29:02;46.83;;;25.60;;
78027;SDS011;67235;45.638;11.714;2023-04-01T04:31:28;36.63;;;21.70;;
78027;SDS011;67235;45.638;11.714;2023-04-01T04:33:54;29.87;;;17.47;;
78027;SDS011;67235;45.638;11.714;2023-04-01T04:36:21;27.85;;;16.02;;
78027;SDS011;67235;45.638;11.714;2023-04-01T04:38:47;26.95;;;16.55;;
78027;SDS011;67235;45.638;11.714;2023-04-01T04:41:14;45.70;;;22.48;;
78027;SDS011;67235;45.638;11.714;2023-04-01T04:43:48;35.28;;;21.00;;
78027;SDS011;67235;45.638;11.714;2023-04-01T04:46:18;36.40;;;20.30;;
78027;SDS011;67235;45.638;11.714;2023-04-01T04:48:45;35.90;;;19.42;;
78027;SDS011;67235;45.638;11.714;2023-04-01T04:51:14;36.80;;;20.10;;
78027;SDS011;67235;45.638;11.714;2023-04-01T04:53:41;38.05;;;20.45;;
78027;SDS011;67235;45.638;11.714;2023-04-01T04:56:07;37.83;;;21.10;;
78027;SDS011;67235;45.638;11.714;2023-04-01T04:58:33;36.00;;;20.10;;
78027;SDS011;67235;45.638;11.714;2023-04-01T05:00:59;31.15;;;18.67;;
78027;SDS011;67235;45.638;11.714;2023-04-01T05:03:30;27.47;;;16.37;;
78027;SDS011;67235;45.638;11.714;2023-04-01T05:05:56;30.25;;;17.65;;
78027;SDS011;67235;45.638;11.714;2023-04-01T05:08:22;33.65;;;18.60;;
78027;SDS011;67235;45.638;11.714;2023-04-01T05:10:47;34.73;;;20.10;;
78027;SDS011;67235;45.638;11.714;2023-04-01T05:13:13;34.47;;;18.75;;
78027;SDS011;67235;45.638;11.714;2023-04-01T05:15:39;30.57;;;17.63;;
78027;SDS011;67235;45.638;11.714;2023-04-01T05:18:05;29.05;;;16.25;;
78027;SDS011;67235;45.638;11.714;2023-04-01T05:20:31;25.05;;;15.02;;
78027;SDS011;67235;45.638;11.714;2023-04-01T05:22:57;29.17;;;16.87;;
78027;SDS011;67235;45.638;11.714;2023-04-01T05:25:24;27.33;;;16.65;;
78027;SDS011;67235;45.638;11.714;2023-04-01T05:27:50;23.42;;;14.32;;
78027;SDS011;67235;45.638;11.714;2023-04-01T05:30:17;24.05;;;14.68;;
78027;SDS011;67235;45.638;11.714;2023-04-01T05:32:46;23.70;;;15.40;;
78027;SDS011;67235;45.638;11.714;2023-04-01T05:35:11;22.97;;;14.43;;
78027;SDS011;67235;45.638;11.714;2023-04-01T05:37:37;20.42;;;12.80;;
78027;SDS011;67235;45.638;11.714;2023-04-01T05:40:03;21.53;;;13.03;;
78027;SDS011;67235;45.638;11.714;2023-04-01T05:42:30;22.02;;;14.57;;
78027;SDS011;67235;45.638;11.714;2023-04-01T05:44:56;32.60;;;19.27;;
78027;SDS011;67235;45.638;11.714;2023-04-01T05:47:22;32.78;;;19.67;;
78027;SDS011;67235;45.638;11.714;2023-04-01T05:49:48;32.37;;;20.03;;
78027;SDS011;67235;45.638;11.714;2023-04-01T05:52:14;35.80;;;18.83;;
78027;SDS011;67235;45.638;11.714;2023-04-01T05:54:41;31.48;;;17.23;;
78027;SDS011;67235;45.638;11.714;2023-04-01T05:57:06;31.45;;;18.75;;
78027;SDS011;67235;45.638;11.714;2023-04-01T05:59:32;32.90;;;20.00;;
78027;SDS011;67235;45.638;11.714;2023-04-01T06:02:00;30.00;;;18.88;;
78027;SDS011;67235;45.638;11.714;2023-04-01T06:04:26;33.60;;;19.58;;
78027;SDS011;67235;45.638;11.714;2023-04-01T06:06:57;32.53;;;19.13;;
78027;SDS011;67235;45.638;11.714;2023-04-01T06:09:27;32.23;;;19.73;;
78027;SDS011;67235;45.638;11.714;2023-04-01T06:21:06;34.50;;;20.20;;
78027;SDS011;67235;45.638;11.714;2023-04-01T06:24:44;33.83;;;19.00;;
78027;SDS011;67235;45.638;11.714;2023-04-01T06:30:41;32.38;;;19.38;;
78027;SDS011;67235;45.638;11.714;2023-04-01T06:33:32;35.22;;;20.20;;
78027;SDS011;67235;45.638;11.714;2023-04-01T08:12:50;19.50;;;15.47;;
78027;SDS011;67235;45.638;11.714;2023-04-01T08:18:53;22.53;;;14.33;;
78027;SDS011;67235;45.638;11.714;2023-04-01T08:25:09;20.98;;;15.38;;
78027;SDS011;67235;45.638;11.714;2023-04-01T08:43:58;18.77;;;14.50;;
78027;SDS011;67235;45.638;11.714;2023-04-01T09:51:35;13.10;;;9.20;;
78027;SDS011;67235;45.638;11.714;2023-04-01T09:54:16;15.45;;;9.50;;
78027;SDS011;67235;45.638;11.714;2023-04-01T10:03:58;14.93;;;9.32;;
78027;SDS011;67235;45.638;11.714;2023-04-01T10:06:14;13.85;;;8.80;;
78027;SDS011;67235;45.638;11.714;2023-04-01T10:20:16;14.18;;;9.60;;
78027;SDS011;67235;45.638;11.714;2023-04-01T10:28:36;14.00;;;8.73;;
78027;SDS011;67235;45.638;11.714;2023-04-01T10:37:23;13.88;;;8.50;;
78027;SDS011;67235;45.638;11.714;2023-04-01T10:40:19;11.10;;;7.22;;
78027;SDS011;67235;45.638;11.714;2023-04-01T10:48:50;13.52;;;8.80;;
78027;SDS011;67235;45.638;11.714;2023-04-01T10:54:46;18.20;;;12.88;;
78027;SDS011;67235;45.638;11.714;2023-04-01T11:30:21;16.55;;;10.82;;
78027;SDS011;67235;45.638;11.714;2023-04-01T11:33:19;15.60;;;11.10;;
78027;SDS011;67235;45.638;11.714;2023-04-01T11:44:46;18.30;;;11.50;;
78027;SDS011;67235;45.638;11.714;2023-04-01T11:52:52;16.87;;;11.50;;
78027;SDS011;67235;45.638;11.714;2023-04-01T11:58:28;18.00;;;11.57;;
78027;SDS011;67235;45.638;11.714;2023-04-01T12:01:14;17.73;;;10.55;;
78027;SDS011;67235;45.638;11.714;2023-04-01T12:04:54;18.08;;;11.57;;
78027;SDS011;67235;45.638;11.714;2023-04-01T12:10:02;19.58;;;12.05;;
78027;SDS011;67235;45.638;11.714;2023-04-01T12:29:11;19.98;;;12.38;;
78027;SDS011;67235;45.638;11.714;2023-04-01T12:32:15;16.20;;;11.40;;
78027;SDS011;67235;45.638;11.714;2023-04-01T12:35:15;16.27;;;11.33;;
78027;SDS011;67235;45.638;11.714;2023-04-01T12:38:13;21.60;;;12.75;;
78027;SDS011;67235;45.638;11.714;2023-04-01T12:52:04;18.58;;;12.77;;
78027;SDS011;67235;45.638;11.714;2023-04-01T12:54:41;20.90;;;12.45;;
78027;SDS011;67235;45.638;11.714;2023-04-01T13:13:34;16.17;;;10.80;;
78027;SDS011;67235;45.638;11.714;2023-04-01T13:24:13;16.73;;;11.27;;
78027;SDS011;67235;45.638;11.714;2023-04-01T13:29:49;35.13;;;30.45;;
78027;SDS011;67235;45.638;11.714;2023-04-01T13:32:24;16.65;;;11.95;;
78027;SDS011;67235;45.638;11.714;2023-04-01T13:35:05;15.68;;;10.32;;
78027;SDS011;67235;45.638;11.714;2023-04-01T13:37:54;17.85;;;11.38;;
78027;SDS011;67235;45.638;11.714;2023-04-01T13:49:44;20.40;;;12.00;;
78027;SDS011;67235;45.638;11.714;2023-04-01T13:52:20;18.38;;;12.35;;
78027;SDS011;67235;45.638;11.714;2023-04-01T13:55:21;18.97;;;12.63;;
78027;SDS011;67235;45.638;11.714;2023-04-01T14:07:04;18.55;;;13.13;;
78027;SDS011;67235;45.638;11.714;2023-04-01T14:09:52;24.60;;;12.90;;
78027;SDS011;67235;45.638;11.714;2023-04-01T14:18:18;22.08;;;13.43;;
78027;SDS011;67235;45.638;11.714;2023-04-01T14:24:03;19.23;;;13.03;;
78027;SDS011;67235;45.638;11.714;2023-04-01T14:26:50;20.35;;;13.15;;
78027;SDS011;67235;45.638;11.714;2023-04-01T14:29:36;19.23;;;12.40;;
78027;SDS011;67235;45.638;11.714;2023-04-01T14:32:37;19.45;;;13.13;;
78027;SDS011;67235;45.638;11.714;2023-04-01T14:52:49;30.17;;;16.90;;
78027;SDS011;67235;45.638;11.714;2023-04-01T14:55:10;20.17;;;11.90;;
78027;SDS011;67235;45.638;11.714;2023-04-01T14:58:12;19.42;;;11.52;;
78027;SDS011;67235;45.638;11.714;2023-04-01T15:01:00;20.63;;;12.32;;
78027;SDS011;67235;45.638;11.714;2023-04-01T15:20:57;17.13;;;9.77;;
78027;SDS011;67235;45.638;11.714;2023-04-01T15:23:57;16.33;;;10.05;;
78027;SDS011;67235;45.638;11.714;2023-04-01T15:32:23;17.73;;;10.32;;
78027;SDS011;67235;45.638;11.714;2023-04-01T15:40:30;19.92;;;13.10;;
78027;SDS011;67235;45.638;11.714;2023-04-01T15:49:38;20.83;;;12.77;;
78027;SDS011;67235;45.638;11.714;2023-04-01T15:52:33;21.88;;;12.10;;
78027;SDS011;67235;45.638;11.714;2023-04-01T15:55:06;18.92;;;11.82;;
78027;SDS011;67235;45.638;11.714;2023-04-01T16:00:33;20.48;;;12.65;;
78027;SDS011;67235;45.638;11.714;2023-04-01T16:12:05;20.80;;;12.15;;
78027;SDS011;67235;45.638;11.714;2023-04-01T16:15:06;23.30;;;12.55;;
78027;SDS011;67235;45.638;11.714;2023-04-01T16:21:00;24.45;;;13.50;;
78027;SDS011;67235;45.638;11.714;2023-04-01T16:26:15;21.65;;;13.23;;
78027;SDS011;67235;45.638;11.714;2023-04-01T16:29:03;22.08;;;13.55;;
78027;SDS011;67235;45.638;11.714;2023-04-01T16:31:51;21.83;;;12.37;;
78027;SDS011;67235;45.638;11.714;2023-04-01T16:34:34;23.08;;;13.23;;
78027;SDS011;67235;45.638;11.714;2023-04-01T16:37:19;23.67;;;14.13;;
78027;SDS011;67235;45.638;11.714;2023-04-01T16:42:43;23.52;;;13.70;;
78027;SDS011;67235;45.638;11.714;2023-04-01T16:47:54;21.90;;;12.50;;
78027;SDS011;67235;45.638;11.714;2023-04-01T16:58:11;22.40;;;12.83;;
78027;SDS011;67235;45.638;11.714;2023-04-01T17:00:48;21.73;;;13.23;;
78027;SDS011;67235;45.638;11.714;2023-04-01T17:03:38;22.50;;;12.85;;
78027;SDS011;67235;45.638;11.714;2023-04-01T17:09:02;23.30;;;12.75;;
78027;SDS011;67235;45.638;11.714;2023-04-01T17:11:40;22.47;;;13.13;;
78027;SDS011;67235;45.638;11.714;2023-04-01T17:17:31;25.38;;;13.30;;
78027;SDS011;67235;45.638;11.714;2023-04-01T17:20:05;26.92;;;13.73;;
78027;SDS011;67235;45.638;11.714;2023-04-01T17:22:44;27.65;;;13.27;;
78027;SDS011;67235;45.638;11.714;2023-04-01T17:28:29;23.15;;;13.90;;
78027;SDS011;67235;45.638;11.714;2023-04-01T17:34:09;24.52;;;13.98;;
78027;SDS011;67235;45.638;11.714;2023-04-01T17:36:45;28.02;;;15.30;;
78027;SDS011;67235;45.638;11.714;2023-04-01T17:50:49;27.85;;;15.60;;
78027;SDS011;67235;45.638;11.714;2023-04-01T17:53:35;26.63;;;15.57;;
78027;SDS011;67235;45.638;11.714;2023-04-01T17:59:15;27.40;;;16.10;;
78027;SDS011;67235;45.638;11.714;2023-04-01T18:08:12;27.53;;;14.97;;
78027;SDS011;67235;45.638;11.714;2023-04-01T18:11:04;24.08;;;14.32;;
78027;SDS011;67235;45.638;11.714;2023-04-01T18:17:21;30.60;;;14.43;;
78027;SDS011;67235;45.638;11.714;2023-04-01T18:22:57;29.17;;;15.37;;
78027;SDS011;67235;45.638;11.714;2023-04-01T18:25:40;30.70;;;15.88;;
78027;SDS011;67235;45.638;11.714;2023-04-01T18:28:27;32.33;;;16.60;;
78027;SDS011;67235;45.638;11.714;2023-04-01T18:33:41;29.63;;;14.70;;
78027;SDS011;67235;45.638;11.714;2023-04-01T18:39:40;28.27;;;15.00;;
78027;SDS011;67235;45.638;11.714;2023-04-01T18:51:10;27.83;;;14.27;;
78027;SDS011;67235;45.638;11.714;2023-04-01T18:53:48;27.75;;;14.93;;
78027;SDS011;67235;45.638;11.714;2023-04-01T18:56:29;29.15;;;15.52;;
78027;SDS011;67235;45.638;11.714;2023-04-01T19:04:47;25.17;;;14.23;;
78027;SDS011;67235;45.638;11.714;2023-04-01T19:10:13;28.27;;;15.80;;
78027;SDS011;67235;45.638;11.714;2023-04-01T19:12:49;30.10;;;15.50;;
78027;SDS011;67235;45.638;11.714;2023-04-01T19:18:22;30.33;;;15.93;;
78027;SDS011;67235;45.638;11.714;2023-04-01T19:20:56;35.08;;;17.50;;
78027;SDS011;67235;45.638;11.714;2023-04-01T19:27:03;31.50;;;17.10;;
78027;SDS011;67235;45.638;11.714;2023-04-01T19:42:59;35.78;;;18.77;;
78027;SDS011;67235;45.638;11.714;2023-04-01T19:45:38;34.07;;;17.40;;
78027;SDS011;67235;45.638;11.714;2023-04-01T19:48:27;37.08;;;19.70;;
78027;SDS011;67235;45.638;11.714;2023-04-01T19:51:11;38.90;;;19.73;;
78027;SDS011;67235;45.638;11.714;2023-04-01T19:56:39;36.90;;;19.50;;
78027;SDS011;67235;45.638;11.714;2023-04-01T19:59:23;37.67;;;19.87;;
78027;SDS011;67235;45.638;11.714;2023-04-01T20:07:00;37.17;;;19.27;;
78027;SDS011;67235;45.638;11.714;2023-04-01T20:12:52;38.55;;;19.33;;
78027;SDS011;67235;45.638;11.714;2023-04-01T20:15:39;38.97;;;19.70;;
78027;SDS011;67235;45.638;11.714;2023-04-01T20:26:30;34.13;;;19.73;;
78027;SDS011;67235;45.638;11.714;2023-04-01T20:31:47;39.38;;;20.02;;
78027;SDS011;67235;45.638;11.714;2023-04-01T20:37:21;44.70;;;21.05;;
78027;SDS011;67235;45.638;11.714;2023-04-01T20:42:57;36.65;;;19.23;;
78027;SDS011;67235;45.638;11.714;2023-04-01T20:45:46;33.80;;;18.33;;
78027;SDS011;67235;45.638;11.714;2023-04-01T20:51:26;33.63;;;18.40;;
78027;SDS011;67235;45.638;11.714;2023-04-01T21:05:59;34.13;;;18.85;;
78027;SDS011;67235;45.638;11.714;2023-04-01T21:14:58;31.10;;;18.13;;
78027;SDS011;67235;45.638;11.714;2023-04-01T21:23:29;31.58;;;16.95;;
78027;SDS011;67235;45.638;11.714;2023-04-01T21:31:56;34.37;;;18.47;;
78027;SDS011;67235;45.638;11.714;2023-04-01T21:53:44;31.45;;;16.83;;
78027;SDS011;67235;45.638;11.714;2023-04-01T22:01:58;35.20;;;17.80;;
78027;SDS011;67235;45.638;11.714;2023-04-01T22:07:25;30.13;;;17.00;;
78027;SDS011;67235;45.638;11.714;2023-04-01T22:12:54;29.53;;;16.57;;
78027;SDS011;67235;45.638;11.714;2023-04-01T22:18:34;30.50;;;16.40;;
78027;SDS011;67235;45.638;11.714;2023-04-01T22:26:16;28.37;;;15.87;;
78027;SDS011;67235;45.638;11.714;2023-04-01T22:31:28;32.75;;;16.33;;
78027;SDS011;67235;45.638;11.714;2023-04-01T22:34:12;30.42;;;16.90;;
78027;SDS011;67235;45.638;11.714;2023-04-01T22:39:38;29.33;;;16.02;;
78027;SDS011;67235;45.638;11.714;2023-04-01T22:42:45;29.90;;;15.85;;
78027;SDS011;67235;45.638;11.714;2023-04-01T22:47:59;28.13;;;16.15;;
78027;SDS011;67235;45.638;11.714;2023-04-01T22:50:32;27.52;;;15.27;;
78027;SDS011;67235;45.638;11.714;2023-04-01T22:53:22;27.10;;;15.57;;
78027;SDS011;67235;45.638;11.714;2023-04-01T22:56:08;27.30;;;15.88;;
78027;SDS011;67235;45.638;11.714;2023-04-01T22:58:46;26.77;;;15.68;;
78027;SDS011;67235;45.638;11.714;2023-04-01T23:01:21;27.25;;;15.63;;
78027;SDS011;67235;45.638;11.714;2023-04-01T23:03:51;25.45;;;15.40;;
78027;SDS011;67235;45.638;11.714;2023-04-01T23:06:22;27.60;;;15.97;;
78027;SDS011;67235;45.638;11.714;2023-04-01T23:09:02;26.02;;;14.25;;
78027;SDS011;67235;45.638;11.714;2023-04-01T23:11:35;25.88;;;14.50;;
78027;SDS011;67235;45.638;11.714;2023-04-01T23:16:45;24.75;;;14.02;;
78027;SDS011;67235;45.638;11.714;2023-04-01T23:19:17;26.77;;;14.57;;
78027;SDS011;67235;45.638;11.714;2023-04-01T23:21:47;23.52;;;14.07;;
78027;SDS011;67235;45.638;11.714;2023-04-01T23:24:33;23.30;;;13.88;;
78027;SDS011;67235;45.638;11.714;2023-04-01T23:27:21;26.15;;;15.13;;
78027;SDS011;67235;45.638;11.714;2023-04-01T23:29:54;22.65;;;13.23;;
78027;SDS011;67235;45.638;11.714;2023-04-01T23:32:22;25.93;;;14.27;;
78027;SDS011;67235;45.638;11.714;2023-04-01T23:34:52;22.45;;;14.52;;
78027;SDS011;67235;45.638;11.714;2023-04-01T23:37:20;23.58;;;13.65;;
78027;SDS011;67235;45.638;11.714;2023-04-01T23:39:48;29.00;;;15.50;;
78027;SDS011;67235;45.638;11.714;2023-04-01T23:42:28;27.55;;;14.50;;
78027;SDS011;67235;45.638;11.714;2023-04-01T23:44:58;27.80;;;14.57;;
78027;SDS011;67235;45.638;11.714;2023-04-01T23:47:29;27.48;;;14.82;;
78027;SDS011;67235;45.638;11.714;2023-04-01T23:50:10;26.58;;;15.05;;
78027;SDS011;67235;45.638;11.714;2023-04-01T23:52:46;24.75;;;13.95;;
